Time;durP1;ratioP1;P1;durP2;ratioP2;P2;SDS_P1;SDS_P2;PMS_P1;PMS_P2;Temp;Humidity;BMP_temperature;BMP_pressure;BME280_temperature;BME280_humidity;BME280_pressure;Samples;Min_cycle;Max_cycle;Signal;HPM_P1;HPM_P2
2022/01/31 00:01:32;;;;;;;88.10;49.97;;;9.10;99.90;;;;;;4962074;28;113227;-62
2022/01/31 00:03:57;;;;;;;86.82;49.60;;;9.00;99.90;;;;;;4961264;28;114339;-63
2022/01/31 00:06:23;;;;;;;95.78;50.75;;;9.00;99.90;;;;;;4962421;28;112382;-61
2022/01/31 00:08:50;;;;;;;85.32;47.50;;;8.90;99.90;;;;;;4945013;28;112523;-60
2022/01/31 00:11:17;;;;;;;98.72;50.78;;;8.90;99.90;;;;;;4961858;28;114845;-61
2022/01/31 00:13:56;;;;;;;81.22;43.28;;;8.90;99.90;;;;;;4961782;28;112497;-61
2022/01/31 00:16:25;;;;;;;87.40;46.30;;;8.80;99.90;;;;;;4946152;28;112693;-62
2022/01/31 00:18:53;;;;;;;81.55;41.65;;;8.80;99.90;;;;;;4974082;28;112446;-60
2022/01/31 00:21:19;;;;;;;73.82;40.63;;;8.80;99.90;;;;;;4981263;28;114722;-62
2022/01/31 00:23:45;;;;;;;77.45;42.20;;;8.70;99.90;;;;;;4980611;28;113465;-61
2022/01/31 00:26:11;;;;;;;75.35;41.10;;;8.70;99.90;;;;;;4979746;28;112549;-62
2022/01/31 00:28:37;;;;;;;71.35;39.00;;;8.70;99.90;;;;;;5026381;22;114747;-64
2022/01/31 00:31:02;;;;;;;74.93;39.30;;;8.70;99.90;;;;;;4963409;28;113949;-63
2022/01/31 00:33:28;;;;;;;79.90;40.67;;;8.60;99.90;;;;;;4981054;28;113671;-62
2022/01/31 00:35:55;;;;;;;82.00;42.80;;;8.60;99.90;;;;;;4944411;28;112508;-62
2022/01/31 00:38:21;;;;;;;83.07;42.97;;;8.50;99.90;;;;;;4961880;28;112530;-62
2022/01/31 00:40:47;;;;;;;88.38;45.47;;;8.50;99.90;;;;;;4961885;28;113473;-62
2022/01/31 00:43:14;;;;;;;88.85;44.58;;;8.50;99.90;;;;;;4943383;28;115119;-62
2022/01/31 00:45:58;;;;;;;73.70;40.47;;;8.50;99.90;;;;;;4943765;28;112533;-62
2022/01/31 00:48:26;;;;;;;86.32;42.97;;;8.50;99.90;;;;;;4962509;28;112842;-62
2022/01/31 00:50:52;;;;;;;92.15;48.15;;;8.50;99.90;;;;;;4960940;28;114872;-64
2022/01/31 00:53:18;;;;;;;89.03;44.53;;;8.50;99.90;;;;;;4989776;22;113326;-63
2022/01/31 00:55:44;;;;;;;86.60;46.38;;;8.50;99.90;;;;;;4980145;28;112376;-63
2022/01/31 00:58:09;;;;;;;90.50;45.60;;;8.50;99.90;;;;;;4976888;28;112793;-61
2022/01/31 01:00:35;;;;;;;82.43;44.65;;;8.50;99.90;;;;;;4952784;22;116011;-59
2022/01/31 01:03:02;;;;;;;86.72;44.38;;;8.50;99.90;;;;;;4961232;28;112405;-60
2022/01/31 01:05:28;;;;;;;85.78;43.63;;;8.50;99.90;;;;;;4963159;28;112684;-62
2022/01/31 01:07:55;;;;;;;85.85;41.90;;;8.50;99.90;;;;;;4964462;28;112695;-59
2022/01/31 01:10:21;;;;;;;84.82;41.38;;;8.40;99.90;;;;;;4947554;28;113031;-59
2022/01/31 01:12:47;;;;;;;85.43;45.28;;;8.50;99.90;;;;;;4964312;28;113606;-62
2022/01/31 01:15:15;;;;;;;87.75;43.08;;;8.50;99.90;;;;;;4947587;28;113037;-60
2022/01/31 01:17:42;;;;;;;93.78;45.15;;;8.50;99.90;;;;;;4965141;22;114023;-60
2022/01/31 01:20:09;;;;;;;81.97;42.22;;;8.50;99.90;;;;;;4965416;28;113506;-62
2022/01/31 01:22:34;;;;;;;80.57;41.85;;;8.50;99.90;;;;;;4976945;28;115118;-62
2022/01/31 01:25:04;;;;;;;84.78;43.22;;;8.50;99.90;;;;;;4964565;28;112725;-62
2022/01/31 01:27:30;;;;;;;96.75;45.05;;;8.50;99.90;;;;;;4965118;28;112606;-62
2022/01/31 01:29:56;;;;;;;99.18;47.83;;;8.60;99.90;;;;;;4946407;28;113444;-62
2022/01/31 01:32:24;;;;;;;93.38;45.92;;;8.60;99.90;;;;;;4964711;28;113104;-62
2022/01/31 01:34:50;;;;;;;88.05;43.40;;;8.60;99.90;;;;;;4971448;28;112355;-62
2022/01/31 01:37:16;;;;;;;82.43;42.15;;;8.60;99.90;;;;;;4984936;28;112364;-62
2022/01/31 01:39:42;;;;;;;87.05;42.80;;;8.60;99.90;;;;;;4984018;28;112961;-62
2022/01/31 01:42:08;;;;;;;82.57;43.78;;;8.70;99.90;;;;;;4965758;28;113637;-61
2022/01/31 01:44:50;;;;;;;84.75;44.80;;;8.60;99.90;;;;;;4984470;28;113352;-61
2022/01/31 01:47:22;;;;;;;90.60;46.55;;;8.60;99.90;;;;;;4984364;28;112462;-61
2022/01/31 01:49:49;;;;;;;89.60;44.33;;;8.60;99.90;;;;;;4966164;28;114626;-61
2022/01/31 01:52:17;;;;;;;90.45;44.45;;;8.50;99.90;;;;;;4983901;28;112618;-61
2022/01/31 01:54:45;;;;;;;90.68;45.53;;;8.50;99.90;;;;;;4984523;28;112659;-61
2022/01/31 01:57:12;;;;;;;83.25;43.13;;;8.60;99.90;;;;;;4984260;28;113669;-60
2022/01/31 01:59:40;;;;;;;86.70;40.83;;;8.60;99.90;;;;;;4965020;28;115177;-61
2022/01/31 02:02:07;;;;;;;82.00;40.47;;;8.60;99.90;;;;;;4983559;28;113561;-61
2022/01/31 02:04:34;;;;;;;82.88;43.70;;;8.60;99.90;;;;;;4983205;28;112466;-61
2022/01/31 02:07:00;;;;;;;79.05;39.88;;;8.60;99.90;;;;;;4966204;28;112693;-61
2022/01/31 02:09:29;;;;;;;87.00;41.80;;;8.70;99.90;;;;;;4983569;28;114540;-62
2022/01/31 02:11:57;;;;;;;87.72;42.17;;;8.60;99.90;;;;;;4962402;28;113442;-62
2022/01/31 02:14:23;;;;;;;74.22;38.55;;;8.70;99.90;;;;;;4964098;28;113276;-63
2022/01/31 02:16:50;;;;;;;88.82;39.80;;;8.70;99.90;;;;;;4963015;28;112563;-62
2022/01/31 02:19:21;;;;;;;82.00;41.22;;;8.70;99.90;;;;;;4963572;28;114487;-62
2022/01/31 02:21:51;;;;;;;74.07;37.65;;;8.80;99.90;;;;;;4961933;28;116030;-62
2022/01/31 02:24:17;;;;;;;67.03;35.97;;;8.80;99.90;;;;;;4963618;28;112389;-63
2022/01/31 02:26:43;;;;;;;69.55;33.55;;;8.80;99.90;;;;;;4964437;28;112471;-63
2022/01/31 02:29:11;;;;;;;67.50;34.22;;;8.80;99.90;;;;;;4963071;28;112899;-62
2022/01/31 02:31:42;;;;;;;59.80;28.92;;;8.80;99.90;;;;;;4963142;28;112895;-62
2022/01/31 02:34:08;;;;;;;59.38;30.65;;;8.80;99.90;;;;;;4962688;28;112881;-63
2022/01/31 02:36:33;;;;;;;56.80;30.35;;;8.80;99.90;;;;;;4963015;28;112596;-63
2022/01/31 02:38:59;;;;;;;53.33;28.42;;;8.80;99.90;;;;;;4963482;28;114376;-63
2022/01/31 02:41:27;;;;;;;55.60;27.42;;;8.80;99.90;;;;;;4961338;28;113192;-62
2022/01/31 02:43:54;;;;;;;53.28;25.55;;;8.80;99.90;;;;;;4962912;28;112835;-61
2022/01/31 02:46:24;;;;;;;49.95;25.02;;;8.80;99.90;;;;;;4962729;28;112695;-61
2022/01/31 02:48:51;;;;;;;46.60;25.60;;;8.80;99.90;;;;;;4963220;28;114237;-61
2022/01/31 02:51:22;;;;;;;47.83;24.50;;;8.80;99.90;;;;;;4963234;28;112768;-61
2022/01/31 02:53:48;;;;;;;52.90;25.20;;;8.80;99.90;;;;;;4963347;28;112593;-62
2022/01/31 02:56:14;;;;;;;49.22;26.30;;;8.70;99.90;;;;;;4963606;28;112362;-61
2022/01/31 02:58:39;;;;;;;46.10;25.05;;;8.80;99.90;;;;;;4962915;28;113095;-61
2022/01/31 03:01:06;;;;;;;50.67;25.98;;;8.70;99.90;;;;;;4961404;28;113787;-61
2022/01/31 03:03:32;;;;;;;47.38;24.25;;;8.70;99.90;;;;;;4979019;28;112683;-61
2022/01/31 03:05:58;;;;;;;44.83;22.90;;;8.80;99.90;;;;;;4983257;28;112531;-61
2022/01/31 03:08:24;;;;;;;45.80;23.10;;;8.70;99.90;;;;;;4982879;28;113042;-61
2022/01/31 03:10:51;;;;;;;49.08;26.85;;;8.80;99.90;;;;;;4978200;28;112735;-62
2022/01/31 03:13:18;;;;;;;51.05;26.10;;;8.80;99.90;;;;;;4961698;28;112639;-62
2022/01/31 03:15:45;;;;;;;48.58;25.27;;;8.80;99.90;;;;;;4963866;28;112450;-61
2022/01/31 03:18:10;;;;;;;50.65;24.75;;;8.80;99.90;;;;;;4961259;28;115862;-61
2022/01/31 03:20:36;;;;;;;48.92;25.70;;;8.80;99.90;;;;;;4961599;28;112726;-62
2022/01/31 03:23:02;;;;;;;50.03;24.63;;;8.80;99.90;;;;;;4962180;28;112335;-62
2022/01/31 03:25:28;;;;;;;52.80;27.60;;;8.80;99.90;;;;;;4963188;28;112573;-62
2022/01/31 03:27:55;;;;;;;43.05;22.30;;;8.90;99.90;;;;;;4961272;28;114352;-61
2022/01/31 03:30:23;;;;;;;54.22;26.83;;;8.90;99.90;;;;;;4962296;28;112967;-62
2022/01/31 03:32:49;;;;;;;54.70;27.77;;;8.90;99.90;;;;;;4961976;28;112272;-62
2022/01/31 03:35:16;;;;;;;47.03;24.00;;;9.00;99.90;;;;;;4962974;28;112485;-61
2022/01/31 03:37:43;;;;;;;51.50;27.42;;;9.00;99.90;;;;;;4962010;28;112969;-62
2022/01/31 03:40:09;;;;;;;49.50;26.60;;;8.90;99.90;;;;;;4961740;28;113444;-62
2022/01/31 03:42:37;;;;;;;45.75;25.13;;;9.00;99.90;;;;;;4963046;28;112612;-62
2022/01/31 03:45:06;;;;;;;54.00;27.88;;;9.00;99.90;;;;;;4962424;28;112628;-61
2022/01/31 03:47:32;;;;;;;58.35;29.55;;;9.00;99.90;;;;;;4962773;28;112921;-62
2022/01/31 03:49:58;;;;;;;63.42;31.98;;;9.00;99.90;;;;;;4961830;28;113006;-61
2022/01/31 03:52:24;;;;;;;69.03;33.70;;;8.90;99.90;;;;;;4962680;28;112663;-61
2022/01/31 03:54:51;;;;;;;67.97;34.58;;;8.90;99.90;;;;;;4962305;28;112565;-62
2022/01/31 03:57:17;;;;;;;82.80;39.25;;;8.90;99.90;;;;;;4961410;28;113468;-62
2022/01/31 03:59:43;;;;;;;77.78;38.67;;;8.90;99.90;;;;;;4962646;28;112501;-61
2022/01/31 04:02:08;;;;;;;83.93;41.38;;;8.90;99.90;;;;;;4962501;28;113466;-61
2022/01/31 04:04:34;;;;;;;85.63;41.40;;;8.90;99.90;;;;;;4961650;28;112718;-61
2022/01/31 04:07:01;;;;;;;89.82;44.45;;;8.80;99.90;;;;;;4962005;28;113596;-62
2022/01/31 04:09:27;;;;;;;93.22;45.30;;;8.80;99.90;;;;;;4962110;28;113740;-62
2022/01/31 04:11:53;;;;;;;90.88;46.45;;;8.80;99.90;;;;;;4961912;28;113109;-61
2022/01/31 04:14:20;;;;;;;98.25;46.97;;;8.80;99.90;;;;;;4963092;28;112461;-61
2022/01/31 04:16:45;;;;;;;92.88;41.80;;;8.80;99.90;;;;;;4960920;28;115165;-62
2022/01/31 04:19:11;;;;;;;93.10;44.92;;;8.80;99.90;;;;;;4961068;28;112644;-61
2022/01/31 04:21:37;;;;;;;107.07;48.55;;;8.80;99.90;;;;;;4944752;28;112649;-61
2022/01/31 04:24:03;;;;;;;95.47;45.38;;;8.80;99.90;;;;;;4962255;28;112469;-61
2022/01/31 04:26:33;;;;;;;95.65;48.05;;;8.80;99.90;;;;;;4944279;28;112849;-61
2022/01/31 04:29:09;;;;;;;89.90;44.15;;;8.80;99.90;;;;;;4961376;28;114079;-62
2022/01/31 04:31:44;;;;;;;102.60;46.47;;;8.80;99.90;;;;;;4970470;22;113463;-63
2022/01/31 04:34:10;;;;;;;100.38;46.78;;;8.70;99.90;;;;;;4976277;28;113037;-60
2022/01/31 04:36:37;;;;;;;97.88;44.78;;;8.70;99.90;;;;;;4961452;28;114399;-61
2022/01/31 04:39:03;;;;;;;93.55;44.40;;;8.60;99.90;;;;;;4961509;28;112690;-61
2022/01/31 04:41:29;;;;;;;97.55;44.90;;;8.60;99.90;;;;;;4944402;28;112384;-62
2022/01/31 04:44:00;;;;;;;90.97;42.25;;;8.60;99.90;;;;;;4944841;28;112937;-62
2022/01/31 04:46:26;;;;;;;100.80;46.60;;;8.60;99.90;;;;;;4960953;28;114174;-61
2022/01/31 04:48:51;;;;;;;90.15;41.85;;;8.50;99.90;;;;;;4964070;28;113918;-62
2022/01/31 04:51:17;;;;;;;98.75;44.97;;;8.50;99.90;;;;;;4981138;28;112348;-61
2022/01/31 04:53:43;;;;;;;95.15;44.38;;;8.50;99.90;;;;;;4981465;28;112558;-63
2022/01/31 04:56:09;;;;;;;91.82;45.95;;;8.50;99.90;;;;;;4963686;28;113190;-59
2022/01/31 04:58:35;;;;;;;95.85;46.10;;;8.60;99.90;;;;;;4980632;28;112959;-61
2022/01/31 05:01:01;;;;;;;91.38;44.78;;;8.50;99.90;;;;;;4980400;28;112323;-61
2022/01/31 05:03:27;;;;;;;99.38;49.17;;;8.50;99.90;;;;;;4981316;28;112702;-61
2022/01/31 05:05:53;;;;;;;97.18;44.00;;;8.50;99.90;;;;;;4980569;28;114452;-64
2022/01/31 05:08:24;;;;;;;99.60;46.03;;;8.50;99.90;;;;;;4980457;28;112504;-61
2022/01/31 05:10:50;;;;;;;103.63;50.10;;;8.50;99.90;;;;;;4981117;28;112408;-61
2022/01/31 05:13:17;;;;;;;101.18;47.00;;;8.50;99.90;;;;;;4947780;28;112853;-60
2022/01/31 05:15:44;;;;;;;96.15;47.15;;;8.50;99.90;;;;;;4980853;28;113123;-61
2022/01/31 05:18:10;;;;;;;94.43;45.90;;;8.50;99.90;;;;;;4962516;28;115030;-62
2022/01/31 05:20:37;;;;;;;104.38;47.55;;;8.50;99.90;;;;;;4981097;28;112456;-62
2022/01/31 05:23:05;;;;;;;100.80;46.20;;;8.50;99.90;;;;;;4963518;28;112870;-59
2022/01/31 05:25:32;;;;;;;102.20;45.57;;;8.50;99.90;;;;;;4959141;28;114516;-62
2022/01/31 05:27:57;;;;;;;92.97;43.65;;;8.50;99.90;;;;;;4927064;28;113702;-62
2022/01/31 05:30:23;;;;;;;98.82;46.95;;;8.50;99.90;;;;;;4961455;28;112636;-61
2022/01/31 05:32:49;;;;;;;97.90;45.85;;;8.50;99.90;;;;;;4943544;28;112604;-62
2022/01/31 05:35:15;;;;;;;96.85;48.15;;;8.50;99.90;;;;;;4960761;28;114991;-61
2022/01/31 05:37:42;;;;;;;98.68;47.67;;;8.50;99.90;;;;;;4960485;28;113122;-63
2022/01/31 05:40:09;;;;;;;115.70;51.95;;;8.50;99.90;;;;;;4961276;28;112580;-62
2022/01/31 05:42:35;;;;;;;104.13;47.97;;;8.50;99.90;;;;;;4961302;28;112559;-62
2022/01/31 05:45:01;;;;;;;104.00;48.13;;;8.50;99.90;;;;;;4943029;28;113141;-62
2022/01/31 05:47:27;;;;;;;102.82;48.58;;;8.50;99.90;;;;;;4960626;28;112705;-60
2022/01/31 05:49:53;;;;;;;102.88;48.40;;;8.50;99.90;;;;;;4960983;28;113715;-62
2022/01/31 05:52:19;;;;;;;117.00;53.85;;;8.40;99.90;;;;;;4963785;28;112460;-63
2022/01/31 05:54:45;;;;;;;106.88;49.03;;;8.40;99.90;;;;;;4946439;28;116200;-62
2022/01/31 05:57:11;;;;;;;110.20;52.92;;;8.40;99.90;;;;;;4946003;28;114236;-62
2022/01/31 05:59:41;;;;;;;109.90;50.63;;;8.40;99.90;;;;;;4964403;28;112368;-61
2022/01/31 06:02:07;;;;;;;106.95;49.72;;;8.40;99.90;;;;;;4964822;28;112813;-60
2022/01/31 06:04:33;;;;;;;94.70;47.20;;;8.40;99.90;;;;;;4963690;28;114160;-62
2022/01/31 06:07:00;;;;;;;105.15;50.00;;;8.40;99.90;;;;;;4963669;28;114397;-63
2022/01/31 06:09:30;;;;;;;115.60;51.55;;;8.30;99.90;;;;;;4964452;28;112539;-61
2022/01/31 06:11:56;;;;;;;102.95;48.47;;;8.30;99.90;;;;;;4964010;28;112557;-62
2022/01/31 06:14:22;;;;;;;96.85;45.88;;;8.40;99.90;;;;;;4946143;28;114651;-62
2022/01/31 06:16:48;;;;;;;106.20;48.22;;;8.40;99.90;;;;;;4944942;28;113902;-61
2022/01/31 06:19:14;;;;;;;96.43;45.05;;;8.40;99.90;;;;;;4963531;28;112329;-61
2022/01/31 06:21:40;;;;;;;94.90;45.05;;;8.40;99.90;;;;;;4963568;28;112460;-61
2022/01/31 06:24:09;;;;;;;93.28;43.53;;;8.40;99.90;;;;;;4963305;28;113126;-62
2022/01/31 06:26:36;;;;;;;91.70;44.58;;;8.30;99.90;;;;;;4975554;28;113399;-61
2022/01/31 06:29:02;;;;;;;96.90;45.90;;;8.30;99.90;;;;;;4983579;28;112900;-62
2022/01/31 06:31:30;;;;;;;92.55;44.80;;;8.40;99.90;;;;;;4983996;28;113014;-64
2022/01/31 06:34:01;;;;;;;104.30;46.92;;;8.40;99.90;;;;;;4983275;28;115328;-61
2022/01/31 06:36:27;;;;;;;99.40;49.80;;;8.30;99.90;;;;;;4982859;28;112718;-61
2022/01/31 06:38:54;;;;;;;90.60;44.60;;;8.40;99.90;;;;;;4964977;28;113198;-62
2022/01/31 06:41:20;;;;;;;95.78;44.42;;;8.40;99.90;;;;;;4983530;28;112476;-62
2022/01/31 06:43:47;;;;;;;90.20;45.72;;;8.40;99.90;;;;;;4964116;28;114566;-63
2022/01/31 06:46:14;;;;;;;97.25;43.03;;;8.40;99.90;;;;;;4964847;28;113774;-62
2022/01/31 06:48:40;;;;;;;84.80;42.85;;;8.30;99.90;;;;;;4983470;28;112381;-61
2022/01/31 06:51:06;;;;;;;96.53;46.92;;;8.30;99.90;;;;;;4983602;28;112347;-62
2022/01/31 06:53:32;;;;;;;104.10;50.28;;;8.30;99.90;;;;;;4964740;28;114061;-63
2022/01/31 06:55:59;;;;;;;100.00;47.90;;;8.30;99.90;;;;;;4982262;28;112697;-61
2022/01/31 06:58:25;;;;;;;95.97;44.38;;;8.30;99.90;;;;;;4982515;28;112688;-60
2022/01/31 07:00:51;;;;;;;81.55;41.33;;;8.30;99.90;;;;;;4982696;28;112581;-62
2022/01/31 07:03:17;;;;;;;82.50;41.67;;;8.30;99.90;;;;;;4981895;28;113118;-61
2022/01/31 07:05:45;;;;;;;99.65;47.10;;;8.40;99.90;;;;;;4982276;28;113619;-61
2022/01/31 07:08:12;;;;;;;91.55;40.95;;;8.50;99.90;;;;;;4950695;28;112713;-60
2022/01/31 07:10:39;;;;;;;87.32;42.08;;;8.50;99.90;;;;;;4958684;28;112582;-60
2022/01/31 07:13:35;;;;;;;84.20;42.50;;;8.60;99.90;;;;;;4944579;28;114208;-60
2022/01/31 07:15:59;;;;;;;88.20;41.05;;;8.60;99.90;;;;;;4962297;28;113857;-60
2022/01/31 07:18:25;;;;;;;80.18;40.53;;;8.60;99.90;;;;;;4962410;28;112400;-60
2022/01/31 07:20:52;;;;;;;83.72;42.75;;;8.60;99.90;;;;;;4962838;28;112476;-60
2022/01/31 07:23:28;;;;;;;75.40;39.53;;;8.60;99.90;;;;;;4961730;28;114519;-62
2022/01/31 07:25:55;;;;;;;81.15;40.85;;;8.60;99.90;;;;;;4955250;28;113803;-62
2022/01/31 07:28:20;;;;;;;72.57;40.08;;;8.50;99.90;;;;;;4926941;28;112806;-62
2022/01/31 07:30:48;;;;;;;83.07;40.15;;;8.50;99.90;;;;;;4959028;28;113242;-63
2022/01/31 07:33:15;;;;;;;80.32;38.78;;;8.40;99.90;;;;;;4954310;28;114269;-65
2022/01/31 07:35:42;;;;;;;77.63;38.58;;;8.40;99.90;;;;;;4942384;28;113849;-64
2022/01/31 07:38:08;;;;;;;82.63;38.42;;;8.40;99.90;;;;;;4962720;28;112678;-66
2022/01/31 07:40:34;;;;;;;93.25;43.17;;;8.40;99.90;;;;;;4982391;28;114895;-67
2022/01/31 07:43:00;;;;;;;77.25;39.50;;;8.30;99.90;;;;;;4980903;28;114664;-65
2022/01/31 07:45:26;;;;;;;86.68;42.28;;;8.30;99.90;;;;;;4981602;28;112781;-65
2022/01/31 07:47:52;;;;;;;84.35;42.90;;;8.30;99.90;;;;;;4974210;28;112489;-64
2022/01/31 07:50:18;;;;;;;79.65;38.55;;;8.30;99.90;;;;;;4962668;28;112957;-66
2022/01/31 07:52:44;;;;;;;80.00;39.53;;;8.30;99.90;;;;;;4971844;28;115104;-65
2022/01/31 07:55:12;;;;;;;79.93;38.15;;;8.40;99.90;;;;;;4975462;28;112693;-64
2022/01/31 07:57:41;;;;;;;79.85;39.58;;;8.40;99.90;;;;;;4970240;28;112539;-64
2022/01/31 08:00:08;;;;;;;87.40;42.13;;;8.40;99.90;;;;;;4950204;28;113861;-65
2022/01/31 08:02:34;;;;;;;82.28;42.40;;;8.40;99.90;;;;;;4947799;28;114531;-65
2022/01/31 08:05:01;;;;;;;73.68;38.85;;;8.40;99.90;;;;;;4972992;28;114605;-65
2022/01/31 08:07:26;;;;;;;81.03;42.45;;;8.50;99.90;;;;;;4950536;28;112681;-65
2022/01/31 08:09:55;;;;;;;76.88;39.20;;;8.50;99.90;;;;;;4970709;28;113079;-65
2022/01/31 08:12:23;;;;;;;75.60;38.75;;;8.50;99.90;;;;;;4976520;28;113414;-65
2022/01/31 08:14:50;;;;;;;77.15;38.65;;;8.50;99.90;;;;;;4957967;28;113704;-64
2022/01/31 08:17:16;;;;;;;93.32;39.75;;;8.60;99.90;;;;;;4978314;28;113475;-63
2022/01/31 08:19:47;;;;;;;71.65;37.08;;;8.60;99.90;;;;;;4928457;28;112791;-65
2022/01/31 08:22:13;;;;;;;75.55;35.70;;;8.60;99.90;;;;;;4957361;28;113153;-65
2022/01/31 08:24:39;;;;;;;84.22;35.50;;;8.60;99.90;;;;;;4964688;28;112795;-65
2022/01/31 08:27:05;;;;;;;72.03;35.15;;;8.70;99.90;;;;;;4950789;28;112869;-63
2022/01/31 08:29:36;;;;;;;78.22;39.45;;;8.70;99.90;;;;;;4972688;28;112504;-63
2022/01/31 08:32:07;;;;;;;70.18;35.15;;;8.70;99.90;;;;;;4973015;28;113646;-62
2022/01/31 08:37:17;;;;;;;68.32;35.63;;;8.70;99.90;;;;;;4967550;28;112732;-64
2022/01/31 08:39:45;;;;;;;75.82;38.97;;;8.70;99.90;;;;;;4970969;28;112786;-64
2022/01/31 08:42:10;;;;;;;70.97;37.92;;;8.70;99.90;;;;;;4960219;28;114585;-63
2022/01/31 08:44:36;;;;;;;82.10;39.72;;;8.80;99.90;;;;;;4960799;28;112626;-62
2022/01/31 08:47:03;;;;;;;75.65;38.75;;;8.80;99.90;;;;;;4976859;28;112959;-62
2022/01/31 08:49:33;;;;;;;67.60;36.10;;;8.80;99.90;;;;;;4962553;28;112863;-64
2022/01/31 08:52:00;;;;;;;70.20;36.33;;;8.90;99.90;;;;;;4967885;28;113782;-64
2022/01/31 08:54:26;;;;;;;75.55;38.03;;;8.90;99.90;;;;;;4968082;28;114040;-63
2022/01/31 08:56:51;;;;;;;74.53;37.28;;;8.90;99.90;;;;;;4977044;28;112832;-62
2022/01/31 08:59:19;;;;;;;69.68;35.47;;;8.90;99.90;;;;;;4961013;28;112459;-64
2022/01/31 09:01:54;;;;;;;68.88;35.92;;;9.00;99.90;;;;;;4969033;28;114945;-61
2022/01/31 09:04:47;;;;;;;61.72;35.97;;;9.00;99.90;;;;;;4945041;28;112673;-62
2022/01/31 09:07:07;;;;;;;75.25;37.58;;;9.00;99.90;;;;;;4959179;28;112713;-63
2022/01/31 09:09:32;;;;;;;69.80;36.40;;;9.00;99.90;;;;;;4942564;28;112902;-65
2022/01/31 09:12:02;;;;;;;80.20;39.28;;;9.10;99.90;;;;;;4949052;28;113083;-62
2022/01/31 09:14:28;;;;;;;;;;;9.10;99.90;;;;;;4976787;28;112927;-60
2022/01/31 09:16:54;;;;;;;82.35;38.13;;;9.10;99.90;;;;;;4927613;28;112918;-65
2022/01/31 09:19:20;;;;;;;72.75;36.00;;;9.10;99.90;;;;;;4960721;28;112595;-64
2022/01/31 09:21:46;;;;;;;68.28;34.78;;;9.20;99.90;;;;;;4962477;28;113913;-65
2022/01/31 09:24:12;;;;;;;70.13;36.85;;;9.20;99.90;;;;;;4966459;28;114129;-64
2022/01/31 09:26:38;;;;;;;68.35;33.60;;;9.20;99.90;;;;;;4964046;28;114010;-63
2022/01/31 09:29:04;;;;;;;67.65;35.35;;;9.30;99.90;;;;;;4976153;28;112824;-63
2022/01/31 09:31:30;;;;;;;69.70;34.05;;;9.30;99.90;;;;;;4955029;28;113448;-64
2022/01/31 09:33:55;;;;;;;73.97;36.05;;;9.30;99.90;;;;;;4970326;28;112943;-62
2022/01/31 09:36:22;;;;;;;73.47;36.22;;;9.40;99.90;;;;;;4959137;28;114109;-65
2022/01/31 09:38:48;;;;;;;71.85;35.15;;;9.40;99.90;;;;;;4964495;28;113347;-64
2022/01/31 09:41:19;;;;;;;72.88;33.97;;;9.50;99.90;;;;;;4951282;28;115993;-62
2022/01/31 09:44:04;;;;;;;71.30;33.83;;;9.50;99.90;;;;;;4963810;28;113476;-63
2022/01/31 09:48:59;;;;;;;61.30;33.33;;;9.60;99.90;;;;;;4972034;28;112765;-62
2022/01/31 09:51:26;;;;;;;66.22;33.38;;;9.60;99.90;;;;;;4952150;28;113865;-63
2022/01/31 09:53:54;;;;;;;62.70;30.58;;;9.70;99.90;;;;;;4968297;28;112867;-64
2022/01/31 09:56:26;;;;;;;66.25;31.13;;;9.80;99.90;;;;;;4960847;28;112724;-62
2022/01/31 09:58:54;;;;;;;59.35;30.60;;;9.80;99.90;;;;;;4965815;28;113347;-61
2022/01/31 10:01:30;;;;;;;57.60;29.10;;;9.80;99.90;;;;;;4956461;28;116337;-64
2022/01/31 10:04:00;;;;;;;56.97;29.98;;;9.90;99.90;;;;;;4951166;28;115527;-64
2022/01/31 10:06:29;;;;;;;54.17;28.90;;;9.90;99.90;;;;;;4970772;28;112765;-62
2022/01/31 10:09:05;;;;;;;53.95;29.02;;;10.00;99.90;;;;;;4951371;28;112707;-62
2022/01/31 10:11:49;;;;;;;55.42;29.13;;;10.10;99.90;;;;;;4969923;28;113618;-61
2022/01/31 10:17:24;;;;;;;62.10;32.22;;;10.20;99.90;;;;;;4957649;28;112840;-63
2022/01/31 10:19:51;;;;;;;66.38;33.60;;;10.30;99.90;;;;;;4944744;28;113522;-63
2022/01/31 10:22:19;;;;;;;61.13;31.83;;;10.40;99.90;;;;;;4972403;28;112919;-64
2022/01/31 10:24:49;;;;;;;53.50;28.67;;;10.50;99.90;;;;;;4957608;28;114580;-64
2022/01/31 10:27:22;;;;;;;;;;;10.60;99.90;;;;;;4974790;28;112647;-63
2022/01/31 10:29:51;;;;;;;56.03;28.42;;;10.60;99.90;;;;;;4972079;28;112856;-65
2022/01/31 10:32:28;;;;;;;50.10;27.93;;;10.80;99.90;;;;;;4971198;28;113480;-62
2022/01/31 10:35:01;;;;;;;51.05;26.60;;;10.90;99.90;;;;;;4968986;28;114158;-63
2022/01/31 10:37:30;;;;;;;55.42;27.40;;;10.90;99.90;;;;;;4944503;28;114966;-63
2022/01/31 10:52:02;;;;;;;46.90;26.00;;;11.30;99.90;;;;;;4961055;28;114461;-61
2022/01/31 10:57:07;;;;;;;53.20;29.42;;;11.40;99.90;;;;;;4967856;28;113416;-61
2022/01/31 10:59:34;;;;;;;57.70;30.20;;;11.50;99.90;;;;;;4964135;28;113841;-64
2022/01/31 11:02:03;;;;;;;46.35;25.58;;;11.40;99.90;;;;;;4962909;28;115992;-61
2022/01/31 11:04:37;;;;;;;45.40;25.63;;;11.40;99.90;;;;;;4955327;28;116074;-62
2022/01/31 11:07:07;;;;;;;47.70;25.90;;;11.30;99.90;;;;;;4943075;28;115556;-61
2022/01/31 11:09:33;;;;;;;47.47;25.73;;;11.30;99.90;;;;;;4961989;28;112437;-62
2022/01/31 11:11:59;;;;;;;49.25;24.75;;;11.30;99.90;;;;;;4959545;28;112613;-62
2022/01/31 11:14:26;;;;;;;52.17;27.15;;;11.30;99.90;;;;;;4962021;28;113649;-62
2022/01/31 11:16:55;;;;;;;53.50;28.05;;;11.30;99.90;;;;;;4961703;28;112547;-62
2022/01/31 11:19:30;;;;;;;51.47;27.30;;;11.30;99.90;;;;;;4944569;28;113040;-63
2022/01/31 11:24:30;;;;;;;45.40;24.95;;;11.60;99.90;;;;;;4950947;28;114092;-67
2022/01/31 11:27:12;;;;;;;40.25;23.13;;;11.60;99.90;;;;;;4940476;28;112760;-66
2022/01/31 11:29:42;;;;;;;41.88;23.27;;;11.80;99.90;;;;;;4941914;28;112820;-69
2022/01/31 11:32:09;;;;;;;46.72;23.13;;;12.10;99.90;;;;;;4942225;28;112560;-67
2022/01/31 11:34:39;;;;;;;39.72;21.25;;;12.20;99.90;;;;;;4941635;28;112953;-67
2022/01/31 11:37:08;;;;;;;32.22;19.38;;;12.50;99.90;;;;;;4942122;28;112913;-69
2022/01/31 11:39:36;;;;;;;37.47;21.20;;;12.40;99.90;;;;;;4942429;28;112645;-66
2022/01/31 11:42:03;;;;;;;45.38;21.42;;;12.60;99.90;;;;;;4943020;28;112440;-67
2022/01/31 11:44:33;;;;;;;44.38;23.25;;;12.70;99.90;;;;;;4939863;28;114788;-66
2022/01/31 11:47:02;;;;;;;;;;;12.90;99.90;;;;;;4942354;28;112618;-67
2022/01/31 11:49:43;;;;;;;34.72;20.85;;;13.20;99.90;;;;;;4957817;22;113418;-64
2022/01/31 11:52:10;;;;;;;41.28;20.60;;;13.30;99.90;;;;;;4970260;28;112601;-65
2022/01/31 11:54:49;;;;;;;38.70;23.40;;;13.50;99.90;;;;;;4943196;28;113161;-66
2022/01/31 11:57:20;;;;;;;33.70;20.90;;;13.70;99.90;;;;;;4943206;28;115196;-65
2022/01/31 11:59:51;;;;;;;32.92;20.20;;;13.80;99.90;;;;;;4943532;28;112905;-66
2022/01/31 12:02:19;;;;;;;42.25;21.15;;;13.80;99.90;;;;;;4961700;28;112751;-66
2022/01/31 12:04:48;;;;;;;38.75;22.13;;;13.80;99.90;;;;;;4961287;28;113481;-67
2022/01/31 12:07:31;;;;;;;40.83;21.08;;;13.80;99.90;;;;;;4960751;28;112976;-64
2022/01/31 12:10:01;;;;;;;37.15;19.60;;;13.80;99.90;;;;;;4961994;28;112600;-67
2022/01/31 12:12:49;;;;;;;39.08;20.13;;;13.70;99.90;;;;;;4960317;28;113201;-66
2022/01/31 12:15:53;;;;;;;35.60;21.73;;;13.90;99.90;;;;;;4943130;28;116428;-67
2022/01/31 12:24:01;;;;;;;29.92;18.38;;;14.50;99.90;;;;;;4961544;28;112591;-68
2022/01/31 12:26:31;;;;;;;24.80;14.48;;;14.60;99.90;;;;;;4943261;28;116177;-69
2022/01/31 12:29:12;;;;;;;29.80;16.33;;;14.80;99.90;;;;;;4960654;28;113275;-68
2022/01/31 12:31:39;;;;;;;27.35;15.00;;;14.90;99.90;;;;;;4961552;28;112629;-70
2022/01/31 12:34:17;;;;;;;31.20;16.27;;;15.10;99.90;;;;;;4943932;28;112902;-68
2022/01/31 12:36:43;;;;;;;23.02;13.25;;;15.30;99.90;;;;;;4960158;28;113122;-64
2022/01/31 12:39:55;;;;;;;20.33;12.73;;;15.50;99.90;;;;;;4960917;28;112470;-63
2022/01/31 12:43:08;;;;;;;22.17;12.50;;;15.70;99.90;;;;;;4900475;28;112665;-63
2022/01/31 12:45:40;;;;;;;22.08;13.13;;;16.00;99.90;;;;;;4961240;28;112530;-63
2022/01/31 12:48:12;;;;;;;22.30;13.20;;;16.70;99.90;;;;;;4960767;28;114183;-63
2022/01/31 12:50:58;;;;;;;26.88;13.40;;;17.30;99.90;;;;;;4960950;28;114803;-63
2022/01/31 12:53:38;;;;;;;10.98;7.40;;;17.40;99.90;;;;;;4961627;28;112599;-63
2022/01/31 12:56:11;;;;;;;12.60;8.82;;;17.40;99.90;;;;;;4961898;28;112606;-63
2022/01/31 12:58:38;;;;;;;11.75;8.25;;;17.50;99.90;;;;;;4960961;28;113090;-63
2022/01/31 13:01:16;;;;;;;13.15;9.43;;;18.20;99.90;;;;;;4962774;28;112850;-64
2022/01/31 13:03:46;;;;;;;16.50;9.73;;;18.60;99.70;;;;;;4979259;22;112639;-66